sensor_id;sensor_type;location;lat;lon;timestamp;temperature;humidity
2202;DHT22;1107;48.654;9.250;2023-03-12T00:01:12;1.00;99.90
2202;DHT22;1107;48.654;9.250;2023-03-12T00:03:39;1.00;99.90
2202;DHT22;1107;48.654;9.250;2023-03-12T00:06:06;1.00;99.90
2202;DHT22;1107;48.654;9.250;2023-03-12T00:08:33;1.00;99.90
2202;DHT22;1107;48.654;9.250;2023-03-12T00:11:05;0.90;99.90
2202;DHT22;1107;48.654;9.250;2023-03-12T00:13:32;1.00;43.20
2202;DHT22;1107;48.654;9.250;2023-03-12T00:16:01;1.00;37.90
2202;DHT22;1107;48.654;9.250;2023-03-12T00:18:28;0.80;99.90
2202;DHT22;1107;48.654;9.250;2023-03-12T00:20:55;0.80;99.90
2202;DHT22;1107;48.654;9.250;2023-03-12T00:23:22;0.70;99.90
2202;DHT22;1107;48.654;9.250;2023-03-12T00:25:48;0.70;99.90
2202;DHT22;1107;48.654;9.250;2023-03-12T00:28:16;0.70;99.90
2202;DHT22;1107;48.654;9.250;2023-03-12T00:30:43;0.70;99.90
2202;DHT22;1107;48.654;9.250;2023-03-12T00:33:10;0.70;99.90
2202;DHT22;1107;48.654;9.250;2023-03-12T00:35:37;0.70;99.90
2202;DHT22;1107;48.654;9.250;2023-03-12T00:38:04;0.70;99.90
2202;DHT22;1107;48.654;9.250;2023-03-12T00:40:31;0.80;99.90
2202;DHT22;1107;48.654;9.250;2023-03-12T00:42:58;0.80;99.90
2202;DHT22;1107;48.654;9.250;2023-03-12T00:45:26;0.60;99.90
2202;DHT22;1107;48.654;9.250;2023-03-12T00:47:52;0.60;99.90
2202;DHT22;1107;48.654;9.250;2023-03-12T00:50:19;0.60;99.90
2202;DHT22;1107;48.654;9.250;2023-03-12T00:52:46;0.60;99.90
2202;DHT22;1107;48.654;9.250;2023-03-12T00:55:13;0.50;99.90
2202;DHT22;1107;48.654;9.250;2023-03-12T00:57:39;0.50;99.90
2202;DHT22;1107;48.654;9.250;2023-03-12T01:00:06;0.50;99.90
2202;DHT22;1107;48.654;9.250;2023-03-12T01:02:36;0.50;99.90
2202;DHT22;1107;48.654;9.250;2023-03-12T01:05:03;0.50;99.90
2202;DHT22;1107;48.654;9.250;2023-03-12T01:07:30;0.50;99.90
2202;DHT22;1107;48.654;9.250;2023-03-12T01:09:57;0.50;99.90
2202;DHT22;1107;48.654;9.250;2023-03-12T01:12:24;0.50;99.90
2202;DHT22;1107;48.654;9.250;2023-03-12T01:14:50;0.50;99.90
2202;DHT22;1107;48.654;9.250;2023-03-12T01:17:17;0.50;99.90
2202;DHT22;1107;48.654;9.250;2023-03-12T01:19:45;0.50;99.90
2202;DHT22;1107;48.654;9.250;2023-03-12T01:22:12;0.60;99.90
2202;DHT22;1107;48.654;9.250;2023-03-12T01:24:39;0.50;1.00
2202;DHT22;1107;48.654;9.250;2023-03-12T01:27:06;0.60;1.00
2202;DHT22;1107;48.654;9.250;2023-03-12T01:29:32;0.60;99.90
2202;DHT22;1107;48.654;9.250;2023-03-12T01:31:59;0.60;99.90
2202;DHT22;1107;48.654;9.250;2023-03-12T01:34:26;0.60;99.90
2202;DHT22;1107;48.654;9.250;2023-03-12T01:36:54;0.60;99.90
2202;DHT22;1107;48.654;9.250;2023-03-12T01:39:21;0.60;99.90
2202;DHT22;1107;48.654;9.250;2023-03-12T01:41:47;0.60;99.90
2202;DHT22;1107;48.654;9.250;2023-03-12T01:44:14;0.80;99.90
2202;DHT22;1107;48.654;9.250;2023-03-12T01:46:41;0.60;99.90
2202;DHT22;1107;48.654;9.250;2023-03-12T01:49:09;0.60;99.90
2202;DHT22;1107;48.654;9.250;2023-03-12T01:51:37;0.60;99.90
2202;DHT22;1107;48.654;9.250;2023-03-12T01:54:07;0.50;99.90
2202;DHT22;1107;48.654;9.250;2023-03-12T01:56:34;0.50;1.00
2202;DHT22;1107;48.654;9.250;2023-03-12T01:59:03;0.50;1.00
2202;DHT22;1107;48.654;9.250;2023-03-12T02:01:31;0.50;1.00
2202;DHT22;1107;48.654;9.250;2023-03-12T02:03:58;0.50;1.00
2202;DHT22;1107;48.654;9.250;2023-03-12T02:06:28;0.60;1.00
2202;DHT22;1107;48.654;9.250;2023-03-12T02:08:55;0.60;1.00
2202;DHT22;1107;48.654;9.250;2023-03-12T02:11:25;0.50;1.00
2202;DHT22;1107;48.654;9.250;2023-03-12T02:13:52;0.50;1.00
2202;DHT22;1107;48.654;9.250;2023-03-12T02:16:18;0.50;1.00
2202;DHT22;1107;48.654;9.250;2023-03-12T02:18:46;0.50;1.00
2202;DHT22;1107;48.654;9.250;2023-03-12T02:21:14;0.40;1.00
2202;DHT22;1107;48.654;9.250;2023-03-12T02:23:43;0.40;1.00
2202;DHT22;1107;48.654;9.250;2023-03-12T02:26:12;0.40;1.00
2202;DHT22;1107;48.654;9.250;2023-03-12T02:28:40;0.40;1.00
2202;DHT22;1107;48.654;9.250;2023-03-12T02:31:09;0.40;1.00
2202;DHT22;1107;48.654;9.250;2023-03-12T02:33:37;0.50;1.00
2202;DHT22;1107;48.654;9.250;2023-03-12T02:36:04;0.50;1.00
2202;DHT22;1107;48.654;9.250;2023-03-12T02:38:33;0.60;1.00
2202;DHT22;1107;48.654;9.250;2023-03-12T02:41:00;0.80;1.00
2202;DHT22;1107;48.654;9.250;2023-03-12T02:43:28;0.50;1.00
2202;DHT22;1107;48.654;9.250;2023-03-12T02:45:55;0.50;1.00
2202;DHT22;1107;48.654;9.250;2023-03-12T02:48:22;0.40;1.00
2202;DHT22;1107;48.654;9.250;2023-03-12T02:50:49;0.40;92.40
2202;DHT22;1107;48.654;9.250;2023-03-12T02:53:15;0.40;1.00
2202;DHT22;1107;48.654;9.250;2023-03-12T02:55:42;0.40;99.90
2202;DHT22;1107;48.654;9.250;2023-03-12T02:58:09;0.40;99.90
2202;DHT22;1107;48.654;9.250;2023-03-12T03:00:37;0.30;99.90
2202;DHT22;1107;48.654;9.250;2023-03-12T03:03:03;0.30;1.00
2202;DHT22;1107;48.654;9.250;2023-03-12T03:05:30;0.30;1.00
2202;DHT22;1107;48.654;9.250;2023-03-12T03:07:57;0.30;1.00
2202;DHT22;1107;48.654;9.250;2023-03-12T03:10:24;0.30;1.00
2202;DHT22;1107;48.654;9.250;2023-03-12T03:12:50;0.30;1.00
2202;DHT22;1107;48.654;9.250;2023-03-12T03:15:17;0.30;1.00
2202;DHT22;1107;48.654;9.250;2023-03-12T03:17:45;0.30;1.00
2202;DHT22;1107;48.654;9.250;2023-03-12T03:20:12;0.50;1.00
2202;DHT22;1107;48.654;9.250;2023-03-12T03:22:39;0.30;1.00
2202;DHT22;1107;48.654;9.250;2023-03-12T03:25:07;0.40;99.90
2202;DHT22;1107;48.654;9.250;2023-03-12T03:27:34;0.40;1.00
2202;DHT22;1107;48.654;9.250;2023-03-12T03:30:01;0.40;1.00
2202;DHT22;1107;48.654;9.250;2023-03-12T03:32:28;0.30;1.00
2202;DHT22;1107;48.654;9.250;2023-03-12T03:34:56;0.30;1.00
2202;DHT22;1107;48.654;9.250;2023-03-12T03:37:23;0.30;1.00
2202;DHT22;1107;48.654;9.250;2023-03-12T03:39:50;0.30;1.00
2202;DHT22;1107;48.654;9.250;2023-03-12T03:42:17;0.40;1.00
2202;DHT22;1107;48.654;9.250;2023-03-12T03:44:43;0.20;1.00
2202;DHT22;1107;48.654;9.250;2023-03-12T03:47:10;0.20;98.00
2202;DHT22;1107;48.654;9.250;2023-03-12T03:49:37;0.20;11.90
2202;DHT22;1107;48.654;9.250;2023-03-12T03:52:05;0.30;1.00
2202;DHT22;1107;48.654;9.250;2023-03-12T03:54:32;0.30;1.00
2202;DHT22;1107;48.654;9.250;2023-03-12T03:56:58;0.40;1.00
2202;DHT22;1107;48.654;9.250;2023-03-12T03:59:25;0.50;1.00
2202;DHT22;1107;48.654;9.250;2023-03-12T04:01:52;0.60;1.00
2202;DHT22;1107;48.654;9.250;2023-03-12T04:04:19;0.60;1.00
2202;DHT22;1107;48.654;9.250;2023-03-12T04:06:45;0.60;99.90
2202;DHT22;1107;48.654;9.250;2023-03-12T04:09:13;0.70;1.00
2202;DHT22;1107;48.654;9.250;2023-03-12T04:11:40;0.80;99.90
2202;DHT22;1107;48.654;9.250;2023-03-12T04:14:07;0.80;99.90
2202;DHT22;1107;48.654;9.250;2023-03-12T04:16:33;0.80;99.90
2202;DHT22;1107;48.654;9.250;2023-03-12T04:19:00;0.80;99.90
2202;DHT22;1107;48.654;9.250;2023-03-12T04:21:27;0.80;99.90
2202;DHT22;1107;48.654;9.250;2023-03-12T04:23:54;0.80;99.90
2202;DHT22;1107;48.654;9.250;2023-03-12T04:26:22;0.80;99.90
2202;DHT22;1107;48.654;9.250;2023-03-12T04:28:48;0.80;99.90
2202;DHT22;1107;48.654;9.250;2023-03-12T04:31:15;0.80;1.00
2202;DHT22;1107;48.654;9.250;2023-03-12T04:33:42;0.80;99.90
2202;DHT22;1107;48.654;9.250;2023-03-12T04:36:10;0.80;1.00
2202;DHT22;1107;48.654;9.250;2023-03-12T04:38:37;0.80;1.00
2202;DHT22;1107;48.654;9.250;2023-03-12T04:41:04;1.00;1.00
2202;DHT22;1107;48.654;9.250;2023-03-12T04:43:33;0.80;99.90
2202;DHT22;1107;48.654;9.250;2023-03-12T04:46:00;0.80;99.90
2202;DHT22;1107;48.654;9.250;2023-03-12T04:48:27;0.90;99.90
2202;DHT22;1107;48.654;9.250;2023-03-12T04:50:54;0.90;99.90
2202;DHT22;1107;48.654;9.250;2023-03-12T04:53:21;0.90;99.90
2202;DHT22;1107;48.654;9.250;2023-03-12T04:55:47;1.00;99.90
2202;DHT22;1107;48.654;9.250;2023-03-12T04:58:14;1.00;99.90
2202;DHT22;1107;48.654;9.250;2023-03-12T05:00:42;1.10;99.90
2202;DHT22;1107;48.654;9.250;2023-03-12T05:03:09;1.10;99.90
2202;DHT22;1107;48.654;9.250;2023-03-12T05:05:36;1.20;99.90
2202;DHT22;1107;48.654;9.250;2023-03-12T05:08:03;1.20;99.90
2202;DHT22;1107;48.654;9.250;2023-03-12T05:10:30;1.20;1.00
2202;DHT22;1107;48.654;9.250;2023-03-12T05:12:57;1.30;1.00
2202;DHT22;1107;48.654;9.250;2023-03-12T05:15:24;1.30;99.90
2202;DHT22;1107;48.654;9.250;2023-03-12T05:17:52;1.30;99.90
2202;DHT22;1107;48.654;9.250;2023-03-12T05:20:19;1.30;99.90
2202;DHT22;1107;48.654;9.250;2023-03-12T05:22:46;1.30;99.90
2202;DHT22;1107;48.654;9.250;2023-03-12T05:25:12;1.30;85.90
2202;DHT22;1107;48.654;9.250;2023-03-12T05:27:39;1.30;99.90
2202;DHT22;1107;48.654;9.250;2023-03-12T05:30:06;1.30;1.00
2202;DHT22;1107;48.654;9.250;2023-03-12T05:32:34;1.40;1.00
2202;DHT22;1107;48.654;9.250;2023-03-12T05:35:02;1.50;99.90
2202;DHT22;1107;48.654;9.250;2023-03-12T05:37:28;1.60;1.00
2202;DHT22;1107;48.654;9.250;2023-03-12T05:39:55;1.60;99.90
2202;DHT22;1107;48.654;9.250;2023-03-12T05:42:22;1.60;99.90
2202;DHT22;1107;48.654;9.250;2023-03-12T05:44:50;1.60;99.90
2202;DHT22;1107;48.654;9.250;2023-03-12T05:47:16;1.60;99.90
2202;DHT22;1107;48.654;9.250;2023-03-12T05:49:43;1.60;99.90
2202;DHT22;1107;48.654;9.250;2023-03-12T05:52:11;1.60;1.00
2202;DHT22;1107;48.654;9.250;2023-03-12T05:54:39;1.70;99.90
2202;DHT22;1107;48.654;9.250;2023-03-12T05:57:06;1.60;1.00
2202;DHT22;1107;48.654;9.250;2023-03-12T05:59:33;1.60;1.00
2202;DHT22;1107;48.654;9.250;2023-03-12T06:01:59;1.60;1.00
2202;DHT22;1107;48.654;9.250;2023-03-12T06:04:26;1.70;1.00
2202;DHT22;1107;48.654;9.250;2023-03-12T06:06:53;1.80;1.00
2202;DHT22;1107;48.654;9.250;2023-03-12T06:09:21;1.90;1.00
2202;DHT22;1107;48.654;9.250;2023-03-12T06:11:48;2.00;1.00
2202;DHT22;1107;48.654;9.250;2023-03-12T06:14:15;2.10;91.00
2202;DHT22;1107;48.654;9.250;2023-03-12T06:16:42;2.20;1.00
2202;DHT22;1107;48.654;9.250;2023-03-12T06:19:09;2.30;1.00
2202;DHT22;1107;48.654;9.250;2023-03-12T06:21:38;2.40;1.00
2202;DHT22;1107;48.654;9.250;2023-03-12T06:24:05;2.20;99.90
2202;DHT22;1107;48.654;9.250;2023-03-12T06:26:33;2.10;1.00
2202;DHT22;1107;48.654;9.250;2023-03-12T06:29:00;2.10;1.00
2202;DHT22;1107;48.654;9.250;2023-03-12T06:31:27;2.00;99.90
2202;DHT22;1107;48.654;9.250;2023-03-12T06:33:53;2.00;1.00
2202;DHT22;1107;48.654;9.250;2023-03-12T06:36:20;2.00;61.20
2202;DHT22;1107;48.654;9.250;2023-03-12T06:38:48;2.20;1.00
2202;DHT22;1107;48.654;9.250;2023-03-12T06:41:15;2.10;1.00
2202;DHT22;1107;48.654;9.250;2023-03-12T06:43:44;2.10;99.90
2202;DHT22;1107;48.654;9.250;2023-03-12T06:46:12;2.20;1.00
2202;DHT22;1107;48.654;9.250;2023-03-12T06:48:39;2.20;1.00
2202;DHT22;1107;48.654;9.250;2023-03-12T06:51:06;2.30;1.00
2202;DHT22;1107;48.654;9.250;2023-03-12T06:53:33;2.30;1.00
2202;DHT22;1107;48.654;9.250;2023-03-12T06:56:00;2.40;99.90
2202;DHT22;1107;48.654;9.250;2023-03-12T06:58:27;2.40;99.90
2202;DHT22;1107;48.654;9.250;2023-03-12T07:00:55;2.40;1.00
2202;DHT22;1107;48.654;9.250;2023-03-12T07:03:22;2.40;1.00
2202;DHT22;1107;48.654;9.250;2023-03-12T07:05:49;2.40;99.90
2202;DHT22;1107;48.654;9.250;2023-03-12T07:08:16;2.50;15.90
2202;DHT22;1107;48.654;9.250;2023-03-12T07:10:43;2.40;99.90
2202;DHT22;1107;48.654;9.250;2023-03-12T07:13:10;2.40;99.90
2202;DHT22;1107;48.654;9.250;2023-03-12T07:15:36;2.50;99.90
2202;DHT22;1107;48.654;9.250;2023-03-12T07:18:05;2.50;99.90
2202;DHT22;1107;48.654;9.250;2023-03-12T07:20:32;2.50;99.90
2202;DHT22;1107;48.654;9.250;2023-03-12T07:22:59;2.50;99.90
2202;DHT22;1107;48.654;9.250;2023-03-12T07:25:26;2.60;1.00
2202;DHT22;1107;48.654;9.250;2023-03-12T07:27:52;2.60;1.00
2202;DHT22;1107;48.654;9.250;2023-03-12T07:30:19;2.60;17.40
2202;DHT22;1107;48.654;9.250;2023-03-12T07:32:46;2.60;99.90
2202;DHT22;1107;48.654;9.250;2023-03-12T07:35:14;2.50;1.00
2202;DHT22;1107;48.654;9.250;2023-03-12T07:37:41;2.40;1.00
2202;DHT22;1107;48.654;9.250;2023-03-12T07:40:08;2.50;97.20
2202;DHT22;1107;48.654;9.250;2023-03-12T07:42:35;2.60;1.00
2202;DHT22;1107;48.654;9.250;2023-03-12T07:45:02;2.60;99.90
2202;DHT22;1107;48.654;9.250;2023-03-12T07:47:29;2.60;99.90
2202;DHT22;1107;48.654;9.250;2023-03-12T07:49:55;2.50;1.00
2202;DHT22;1107;48.654;9.250;2023-03-12T07:52:24;2.50;1.00
2202;DHT22;1107;48.654;9.250;2023-03-12T07:54:50;2.60;1.00
2202;DHT22;1107;48.654;9.250;2023-03-12T07:57:18;2.60;99.90
2202;DHT22;1107;48.654;9.250;2023-03-12T07:59:45;2.60;1.00
2202;DHT22;1107;48.654;9.250;2023-03-12T08:02:12;2.80;99.90
2202;DHT22;1107;48.654;9.250;2023-03-12T08:04:38;3.10;1.00
2202;DHT22;1107;48.654;9.250;2023-03-12T08:07:05;3.40;1.00
2202;DHT22;1107;48.654;9.250;2023-03-12T08:09:33;3.40;99.90
2202;DHT22;1107;48.654;9.250;2023-03-12T08:12:00;3.40;97.70
2202;DHT22;1107;48.654;9.250;2023-03-12T08:14:27;3.70;35.60
2202;DHT22;1107;48.654;9.250;2023-03-12T08:16:56;3.70;1.00
2202;DHT22;1107;48.654;9.250;2023-03-12T08:19:23;3.80;1.00
2202;DHT22;1107;48.654;9.250;2023-03-12T08:21:50;4.00;1.00
2202;DHT22;1107;48.654;9.250;2023-03-12T08:24:17;4.70;1.00
2202;DHT22;1107;48.654;9.250;2023-03-12T08:26:45;4.70;99.90
2202;DHT22;1107;48.654;9.250;2023-03-12T08:29:12;4.90;99.90
2202;DHT22;1107;48.654;9.250;2023-03-12T08:31:39;4.70;1.00
2202;DHT22;1107;48.654;9.250;2023-03-12T08:34:06;4.50;1.00
2202;DHT22;1107;48.654;9.250;2023-03-12T08:36:32;4.40;1.00
2202;DHT22;1107;48.654;9.250;2023-03-12T08:39:01;4.00;1.00
2202;DHT22;1107;48.654;9.250;2023-03-12T08:41:28;3.80;1.00
2202;DHT22;1107;48.654;9.250;2023-03-12T08:43:56;3.80;1.00
2202;DHT22;1107;48.654;9.250;2023-03-12T08:46:23;3.80;99.90
2202;DHT22;1107;48.654;9.250;2023-03-12T08:48:50;4.00;1.00
2202;DHT22;1107;48.654;9.250;2023-03-12T08:51:16;4.10;5.60
2202;DHT22;1107;48.654;9.250;2023-03-12T08:53:43;4.10;49.20
2202;DHT22;1107;48.654;9.250;2023-03-12T08:56:10;4.20;99.90
2202;DHT22;1107;48.654;9.250;2023-03-12T08:58:37;4.50;1.00
2202;DHT22;1107;48.654;9.250;2023-03-12T09:01:08;4.80;99.90
2202;DHT22;1107;48.654;9.250;2023-03-12T09:03:35;4.80;99.90
2202;DHT22;1107;48.654;9.250;2023-03-12T09:06:02;4.90;1.00
2202;DHT22;1107;48.654;9.250;2023-03-12T09:08:29;4.80;1.00
2202;DHT22;1107;48.654;9.250;2023-03-12T09:10:58;4.90;1.00
2202;DHT22;1107;48.654;9.250;2023-03-12T09:13:26;4.80;92.00
2202;DHT22;1107;48.654;9.250;2023-03-12T09:15:57;4.80;99.90
2202;DHT22;1107;48.654;9.250;2023-03-12T09:18:25;4.90;99.90
2202;DHT22;1107;48.654;9.250;2023-03-12T09:20:52;4.90;1.00
2202;DHT22;1107;48.654;9.250;2023-03-12T09:23:19;5.30;1.00
2202;DHT22;1107;48.654;9.250;2023-03-12T09:25:46;5.60;1.00
2202;DHT22;1107;48.654;9.250;2023-03-12T09:28:13;5.50;1.00
2202;DHT22;1107;48.654;9.250;2023-03-12T09:30:39;5.60;99.90
2202;DHT22;1107;48.654;9.250;2023-03-12T09:33:06;5.70;1.00
2202;DHT22;1107;48.654;9.250;2023-03-12T09:35:34;5.90;1.00
2202;DHT22;1107;48.654;9.250;2023-03-12T09:38:02;6.00;1.00
2202;DHT22;1107;48.654;9.250;2023-03-12T09:40:31;6.20;1.00
2202;DHT22;1107;48.654;9.250;2023-03-12T09:43:00;6.30;99.90
2202;DHT22;1107;48.654;9.250;2023-03-12T09:45:31;6.40;1.00
2202;DHT22;1107;48.654;9.250;2023-03-12T09:48:02;6.60;1.00
2202;DHT22;1107;48.654;9.250;2023-03-12T09:50:32;6.60;99.90
2202;DHT22;1107;48.654;9.250;2023-03-12T09:53:04;6.70;1.00
2202;DHT22;1107;48.654;9.250;2023-03-12T09:55:36;6.70;1.00
2202;DHT22;1107;48.654;9.250;2023-03-12T09:58:08;6.60;99.90
2202;DHT22;1107;48.654;9.250;2023-03-12T10:00:36;7.00;1.00
2202;DHT22;1107;48.654;9.250;2023-03-12T10:03:19;7.40;99.90
2202;DHT22;1107;48.654;9.250;2023-03-12T10:06:05;7.50;1.00
2202;DHT22;1107;48.654;9.250;2023-03-12T10:08:44;7.60;99.90
2202;DHT22;1107;48.654;9.250;2023-03-12T10:11:20;7.80;99.90
2202;DHT22;1107;48.654;9.250;2023-03-12T10:13:57;7.80;1.00
2202;DHT22;1107;48.654;9.250;2023-03-12T10:16:46;7.90;99.90
2202;DHT22;1107;48.654;9.250;2023-03-12T10:19:34;7.90;25.80
2202;DHT22;1107;48.654;9.250;2023-03-12T10:22:09;8.00;1.00
2202;DHT22;1107;48.654;9.250;2023-03-12T10:24:53;8.40;1.00
2202;DHT22;1107;48.654;9.250;2023-03-12T10:27:26;8.90;1.00
2202;DHT22;1107;48.654;9.250;2023-03-12T10:29:54;9.50;1.00
2202;DHT22;1107;48.654;9.250;2023-03-12T10:32:26;10.00;99.90
2202;DHT22;1107;48.654;9.250;2023-03-12T10:34:57;10.20;1.00
2202;DHT22;1107;48.654;9.250;2023-03-12T10:37:28;10.80;99.90
2202;DHT22;1107;48.654;9.250;2023-03-12T10:39:57;11.10;1.00
2202;DHT22;1107;48.654;9.250;2023-03-12T10:42:27;11.10;1.00
2202;DHT22;1107;48.654;9.250;2023-03-12T10:44:57;10.90;1.00
2202;DHT22;1107;48.654;9.250;2023-03-12T10:47:32;10.90;1.00
2202;DHT22;1107;48.654;9.250;2023-03-12T10:50:12;11.50;1.00
2202;DHT22;1107;48.654;9.250;2023-03-12T10:52:40;12.40;99.90
2202;DHT22;1107;48.654;9.250;2023-03-12T10:55:19;12.70;99.90
2202;DHT22;1107;48.654;9.250;2023-03-12T10:57:46;12.70;99.90
2202;DHT22;1107;48.654;9.250;2023-03-12T11:00:18;12.20;99.90
2202;DHT22;1107;48.654;9.250;2023-03-12T11:02:46;11.70;99.90
2202;DHT22;1107;48.654;9.250;2023-03-12T11:05:22;11.40;99.90
2202;DHT22;1107;48.654;9.250;2023-03-12T11:07:49;11.40;1.00
2202;DHT22;1107;48.654;9.250;2023-03-12T11:10:21;11.70;1.00
2202;DHT22;1107;48.654;9.250;2023-03-12T11:12:58;11.90;1.00
2202;DHT22;1107;48.654;9.250;2023-03-12T11:15:28;12.60;99.90
2202;DHT22;1107;48.654;9.250;2023-03-12T11:18:20;12.30;99.90
2202;DHT22;1107;48.654;9.250;2023-03-12T11:20:50;11.80;99.90
2202;DHT22;1107;48.654;9.250;2023-03-12T11:23:21;12.00;99.90
2202;DHT22;1107;48.654;9.250;2023-03-12T11:25:56;12.20;99.00
2202;DHT22;1107;48.654;9.250;2023-03-12T11:28:28;12.00;98.10
2202;DHT22;1107;48.654;9.250;2023-03-12T11:30:58;12.00;22.50
2202;DHT22;1107;48.654;9.250;2023-03-12T11:33:26;12.20;40.30
2202;DHT22;1107;48.654;9.250;2023-03-12T11:36:07;12.40;24.40
2202;DHT22;1107;48.654;9.250;2023-03-12T11:38:39;12.30;1.00
2202;DHT22;1107;48.654;9.250;2023-03-12T11:41:19;12.40;1.00
2202;DHT22;1107;48.654;9.250;2023-03-12T11:44:01;12.30;1.00
2202;DHT22;1107;48.654;9.250;2023-03-12T11:46:41;12.40;1.00
2202;DHT22;1107;48.654;9.250;2023-03-12T11:49:21;12.50;1.00
2202;DHT22;1107;48.654;9.250;2023-03-12T11:51:57;12.30;1.00
2202;DHT22;1107;48.654;9.250;2023-03-12T11:57:37;13.20;1.00
2202;DHT22;1107;48.654;9.250;2023-03-12T12:00:13;13.30;1.00
2202;DHT22;1107;48.654;9.250;2023-03-12T12:02:56;13.60;1.00
2202;DHT22;1107;48.654;9.250;2023-03-12T12:05:30;15.90;1.00
2202;DHT22;1107;48.654;9.250;2023-03-12T12:08:14;15.30;99.90
2202;DHT22;1107;48.654;9.250;2023-03-12T12:10:51;14.40;99.90
2202;DHT22;1107;48.654;9.250;2023-03-12T12:13:25;14.60;99.90
2202;DHT22;1107;48.654;9.250;2023-03-12T12:16:00;14.40;99.90
2202;DHT22;1107;48.654;9.250;2023-03-12T12:18:40;15.10;99.90
2202;DHT22;1107;48.654;9.250;2023-03-12T12:21:24;14.60;99.90
2202;DHT22;1107;48.654;9.250;2023-03-12T12:23:59;13.90;99.90
2202;DHT22;1107;48.654;9.250;2023-03-12T12:26:35;13.80;99.90
2202;DHT22;1107;48.654;9.250;2023-03-12T12:29:22;14.30;99.90
2202;DHT22;1107;48.654;9.250;2023-03-12T12:31:54;15.40;99.90
2202;DHT22;1107;48.654;9.250;2023-03-12T12:34:52;15.00;99.90
2202;DHT22;1107;48.654;9.250;2023-03-12T12:37:31;14.90;99.90
2202;DHT22;1107;48.654;9.250;2023-03-12T12:40:08;14.60;99.90
2202;DHT22;1107;48.654;9.250;2023-03-12T12:42:47;14.60;99.90
2202;DHT22;1107;48.654;9.250;2023-03-12T12:45:16;15.00;99.90
2202;DHT22;1107;48.654;9.250;2023-03-12T12:47:48;14.80;99.90
2202;DHT22;1107;48.654;9.250;2023-03-12T12:50:19;14.00;99.90
2202;DHT22;1107;48.654;9.250;2023-03-12T12:52:51;14.20;99.90
2202;DHT22;1107;48.654;9.250;2023-03-12T12:55:23;14.30;99.90
2202;DHT22;1107;48.654;9.250;2023-03-12T12:57:54;14.30;99.90
2202;DHT22;1107;48.654;9.250;2023-03-12T13:00:44;13.90;99.90
2202;DHT22;1107;48.654;9.250;2023-03-12T13:03:13;13.10;99.90
2202;DHT22;1107;48.654;9.250;2023-03-12T13:05:56;13.20;99.90
2202;DHT22;1107;48.654;9.250;2023-03-12T13:08:58;13.00;99.90
2202;DHT22;1107;48.654;9.250;2023-03-12T13:11:28;12.80;99.90
2202;DHT22;1107;48.654;9.250;2023-03-12T13:14:18;12.80;99.90
2202;DHT22;1107;48.654;9.250;2023-03-12T13:16:48;12.90;99.90
2202;DHT22;1107;48.654;9.250;2023-03-12T13:19:24;13.20;99.90
2202;DHT22;1107;48.654;9.250;2023-03-12T13:22:10;13.50;99.90
2202;DHT22;1107;48.654;9.250;2023-03-12T13:24:45;13.50;99.90
2202;DHT22;1107;48.654;9.250;2023-03-12T13:27:19;13.10;99.90
2202;DHT22;1107;48.654;9.250;2023-03-12T13:29:48;13.90;99.90
2202;DHT22;1107;48.654;9.250;2023-03-12T13:35:37;14.70;99.90
2202;DHT22;1107;48.654;9.250;2023-03-12T13:38:07;14.20;99.90
2202;DHT22;1107;48.654;9.250;2023-03-12T13:40:52;13.50;99.90
2202;DHT22;1107;48.654;9.250;2023-03-12T13:43:35;13.30;99.90
2202;DHT22;1107;48.654;9.250;2023-03-12T13:46:07;13.00;99.90
2202;DHT22;1107;48.654;9.250;2023-03-12T13:48:47;12.80;99.90
2202;DHT22;1107;48.654;9.250;2023-03-12T13:51:17;13.30;99.90
2202;DHT22;1107;48.654;9.250;2023-03-12T13:53:48;13.30;99.90
2202;DHT22;1107;48.654;9.250;2023-03-12T13:56:17;13.00;99.90
2202;DHT22;1107;48.654;9.250;2023-03-12T13:58:49;13.50;99.90
2202;DHT22;1107;48.654;9.250;2023-03-12T14:01:22;14.10;99.90
2202;DHT22;1107;48.654;9.250;2023-03-12T14:03:52;14.30;99.90
2202;DHT22;1107;48.654;9.250;2023-03-12T14:06:22;14.30;99.90
2202;DHT22;1107;48.654;9.250;2023-03-12T14:08:59;13.70;99.90
2202;DHT22;1107;48.654;9.250;2023-03-12T14:11:40;13.50;99.90
2202;DHT22;1107;48.654;9.250;2023-03-12T14:14:40;13.30;99.90
2202;DHT22;1107;48.654;9.250;2023-03-12T14:17:15;13.20;99.90
2202;DHT22;1107;48.654;9.250;2023-03-12T14:19:47;13.10;99.90
2202;DHT22;1107;48.654;9.250;2023-03-12T14:22:16;13.50;99.90
2202;DHT22;1107;48.654;9.250;2023-03-12T14:24:49;13.00;99.90
2202;DHT22;1107;48.654;9.250;2023-03-12T14:27:23;12.70;99.90
2202;DHT22;1107;48.654;9.250;2023-03-12T14:29:52;12.50;99.90
2202;DHT22;1107;48.654;9.250;2023-03-12T14:32:23;12.20;99.90
2202;DHT22;1107;48.654;9.250;2023-03-12T14:34:55;12.50;99.90
2202;DHT22;1107;48.654;9.250;2023-03-12T14:37:29;13.50;99.90
2202;DHT22;1107;48.654;9.250;2023-03-12T14:40:00;13.60;99.90
2202;DHT22;1107;48.654;9.250;2023-03-12T14:42:28;14.30;99.90
2202;DHT22;1107;48.654;9.250;2023-03-12T14:44:58;14.90;99.90
2202;DHT22;1107;48.654;9.250;2023-03-12T14:47:25;14.60;99.90
2202;DHT22;1107;48.654;9.250;2023-03-12T14:49:54;14.60;99.90
2202;DHT22;1107;48.654;9.250;2023-03-12T14:52:25;14.60;99.90
2202;DHT22;1107;48.654;9.250;2023-03-12T14:54:55;14.80;99.90
2202;DHT22;1107;48.654;9.250;2023-03-12T14:57:23;14.80;99.90
2202;DHT22;1107;48.654;9.250;2023-03-12T14:59:54;14.70;99.90
2202;DHT22;1107;48.654;9.250;2023-03-12T15:02:22;14.60;99.90
2202;DHT22;1107;48.654;9.250;2023-03-12T15:04:51;14.00;99.90
2202;DHT22;1107;48.654;9.250;2023-03-12T15:07:26;13.40;99.90
2202;DHT22;1107;48.654;9.250;2023-03-12T15:09:54;13.30;99.90
2202;DHT22;1107;48.654;9.250;2023-03-12T15:12:23;13.80;99.90
2202;DHT22;1107;48.654;9.250;2023-03-12T15:14:53;14.50;99.90
2202;DHT22;1107;48.654;9.250;2023-03-12T15:17:23;14.90;99.90
2202;DHT22;1107;48.654;9.250;2023-03-12T15:19:51;14.60;99.90
2202;DHT22;1107;48.654;9.250;2023-03-12T15:22:24;14.40;99.90
2202;DHT22;1107;48.654;9.250;2023-03-12T15:24:53;13.90;99.90
2202;DHT22;1107;48.654;9.250;2023-03-12T15:27:31;13.30;99.90
2202;DHT22;1107;48.654;9.250;2023-03-12T15:30:00;12.90;99.90
2202;DHT22;1107;48.654;9.250;2023-03-12T15:32:27;12.60;99.90
2202;DHT22;1107;48.654;9.250;2023-03-12T15:34:56;12.40;99.90
2202;DHT22;1107;48.654;9.250;2023-03-12T15:37:24;12.60;99.90
2202;DHT22;1107;48.654;9.250;2023-03-12T15:39:59;12.70;99.90
2202;DHT22;1107;48.654;9.250;2023-03-12T15:42:36;12.70;99.90
2202;DHT22;1107;48.654;9.250;2023-03-12T15:45:04;12.50;99.90
2202;DHT22;1107;48.654;9.250;2023-03-12T15:47:39;12.40;99.90
2202;DHT22;1107;48.654;9.250;2023-03-12T15:50:10;12.20;99.90
2202;DHT22;1107;48.654;9.250;2023-03-12T15:52:38;12.10;99.90
2202;DHT22;1107;48.654;9.250;2023-03-12T15:55:21;11.90;99.90
2202;DHT22;1107;48.654;9.250;2023-03-12T15:57:50;11.90;99.90
2202;DHT22;1107;48.654;9.250;2023-03-12T16:00:22;11.80;99.90
2202;DHT22;1107;48.654;9.250;2023-03-12T16:02:52;11.80;99.90
2202;DHT22;1107;48.654;9.250;2023-03-12T16:05:21;11.80;99.90
2202;DHT22;1107;48.654;9.250;2023-03-12T16:07:49;11.60;99.90
2202;DHT22;1107;48.654;9.250;2023-03-12T16:10:19;11.60;99.90
2202;DHT22;1107;48.654;9.250;2023-03-12T16:12:48;11.60;99.90
2202;DHT22;1107;48.654;9.250;2023-03-12T16:15:17;11.50;99.90
2202;DHT22;1107;48.654;9.250;2023-03-12T16:17:47;11.60;99.90
2202;DHT22;1107;48.654;9.250;2023-03-12T16:20:14;11.50;99.90
2202;DHT22;1107;48.654;9.250;2023-03-12T16:22:43;11.40;99.90
2202;DHT22;1107;48.654;9.250;2023-03-12T16:25:10;11.50;99.90
2202;DHT22;1107;48.654;9.250;2023-03-12T16:27:45;11.40;99.90
2202;DHT22;1107;48.654;9.250;2023-03-12T16:30:16;11.40;99.90
2202;DHT22;1107;48.654;9.250;2023-03-12T16:32:43;11.40;99.90
2202;DHT22;1107;48.654;9.250;2023-03-12T16:35:14;11.30;99.90
2202;DHT22;1107;48.654;9.250;2023-03-12T16:37:42;11.30;99.90
2202;DHT22;1107;48.654;9.250;2023-03-12T16:40:10;11.20;99.90